Time;durP1;ratioP1;P1;durP2;ratioP2;P2;SDS_P1;SDS_P2;PMS_P1;PMS_P2;Temp;Humidity;BMP_temperature;BMP_pressure;BME280_temperature;BME280_humidity;BME280_pressure;Samples;Min_cycle;Max_cycle;Signal;HPM_P1;HPM_P2
2022/06/20 00:00:18;;;;;;;8.55;1.73;;;14.00;99.90;;;;;;5011895;28;20058;-35
2022/06/20 00:02:46;;;;;;;7.45;1.77;;;13.90;99.90;;;;;;5007737;28;20436;-35
2022/06/20 00:05:21;;;;;;;7.75;1.73;;;13.90;99.90;;;;;;5007835;28;20038;-35
2022/06/20 00:07:47;;;;;;;10.43;1.80;;;13.90;99.90;;;;;;4974300;28;20460;-35
2022/06/20 00:10:15;;;;;;;5.90;1.42;;;13.90;99.90;;;;;;5007969;28;20529;-35
2022/06/20 00:12:42;;;;;;;6.93;1.55;;;13.90;99.90;;;;;;5008934;28;20049;-35
2022/06/20 00:15:19;;;;;;;4.97;1.50;;;13.90;99.90;;;;;;5010058;28;20069;-35
2022/06/20 00:17:45;;;;;;;7.55;1.33;;;13.90;99.90;;;;;;4988463;28;20108;-35
2022/06/20 00:20:13;;;;;;;11.73;1.55;;;13.80;99.90;;;;;;4990518;28;20080;-35
2022/06/20 00:22:39;;;;;;;7.70;1.55;;;13.80;99.90;;;;;;5007797;28;20034;-35
2022/06/20 00:25:05;;;;;;;5.30;1.13;;;13.80;99.90;;;;;;5008008;28;20405;-35
2022/06/20 00:27:30;;;;;;;6.65;1.50;;;13.80;99.90;;;;;;4973526;28;20061;-35
2022/06/20 00:29:56;;;;;;;8.30;1.40;;;13.80;99.90;;;;;;5008310;28;20050;-35
2022/06/20 00:32:22;;;;;;;6.43;1.30;;;13.80;99.90;;;;;;5007683;28;20042;-35
2022/06/20 00:34:47;;;;;;;5.10;0.95;;;13.70;99.90;;;;;;5007629;28;20489;-35
2022/06/20 00:37:19;;;;;;;4.53;1.20;;;13.80;99.90;;;;;;4992759;28;20037;-35
2022/06/20 00:39:46;;;;;;;8.95;1.13;;;13.70;99.90;;;;;;5010049;28;20053;-35
2022/06/20 00:42:12;;;;;;;10.50;1.33;;;13.70;99.90;;;;;;5009092;28;20049;-35
2022/06/20 00:44:50;;;;;;;6.68;0.90;;;13.70;99.90;;;;;;5007947;28;20132;-35
2022/06/20 00:47:22;;;;;;;5.05;1.10;;;13.70;99.90;;;;;;4992393;28;20425;-35
2022/06/20 00:49:54;;;;;;;3.40;1.00;;;13.70;99.90;;;;;;5009305;28;20050;-35
2022/06/20 00:52:35;;;;;;;6.72;1.08;;;13.60;99.90;;;;;;5007377;28;20054;-35
2022/06/20 00:55:18;;;;;;;;;;;13.70;99.90;;;;;;5006055;28;20050;-35
2022/06/20 00:57:48;;;;;;;6.47;1.13;;;13.60;99.90;;;;;;4993192;28;19925;-35
2022/06/20 01:00:20;;;;;;;6.38;0.88;;;13.60;99.90;;;;;;5005960;28;20054;-35
2022/06/20 01:02:58;;;;;;;10.32;1.08;;;13.60;99.90;;;;;;5005948;28;20096;-35
2022/06/20 01:05:32;;;;;;;5.07;1.02;;;13.60;99.90;;;;;;4989561;28;20390;-35
2022/06/20 01:08:25;;;;;;;6.70;1.42;;;13.50;99.90;;;;;;4995004;28;20077;-35
2022/06/20 01:11:04;;;;;;;3.47;0.90;;;13.50;99.90;;;;;;5013872;28;20497;-35
2022/06/20 01:13:30;;;;;;;6.10;1.25;;;13.50;99.90;;;;;;5009934;28;20045;-35
2022/06/20 01:16:20;;;;;;;7.43;1.15;;;13.40;99.90;;;;;;5014636;28;20520;-35
2022/06/20 01:18:48;;;;;;;5.47;1.10;;;13.40;99.90;;;;;;4990841;28;20050;-35
2022/06/20 01:21:20;;;;;;;4.47;1.13;;;13.40;99.90;;;;;;5012089;28;20046;-35
2022/06/20 01:24:07;;;;;;;5.40;1.10;;;13.40;99.90;;;;;;5010038;28;20050;-35
2022/06/20 01:26:39;;;;;;;8.07;1.02;;;13.30;99.90;;;;;;4976488;28;20057;-35
2022/06/20 01:29:07;;;;;;;;;;;13.30;99.90;;;;;;5009298;28;20436;-35
2022/06/20 01:31:44;;;;;;;4.53;1.05;;;13.20;99.90;;;;;;5013377;28;20403;-35
2022/06/20 01:34:14;;;;;;;7.07;1.20;;;13.20;99.90;;;;;;4993041;28;20103;-35
2022/06/20 01:39:26;;;;;;;3.10;0.85;;;13.10;99.90;;;;;;5010873;28;20073;-35
2022/06/20 01:44:40;;;;;;;7.78;1.20;;;13.00;99.90;;;;;;5007317;28;20056;-35
2022/06/20 01:47:06;;;;;;;5.60;1.23;;;13.00;99.90;;;;;;4994369;28;20073;-35
2022/06/20 01:49:34;;;;;;;2.75;0.80;;;12.90;99.90;;;;;;5010601;28;20618;-35
2022/06/20 01:52:04;;;;;;;3.55;1.00;;;12.90;99.90;;;;;;5013870;28;20501;-35
2022/06/20 01:54:32;;;;;;;4.75;1.02;;;12.90;99.90;;;;;;5011285;28;20050;-35
2022/06/20 01:56:58;;;;;;;3.55;1.17;;;12.90;99.90;;;;;;4995693;28;20053;-35
2022/06/20 01:59:51;;;;;;;3.95;1.02;;;12.80;99.90;;;;;;4994421;28;20053;-35
2022/06/20 02:02:17;;;;;;;5.07;1.10;;;12.80;99.90;;;;;;5011315;28;20072;-35
2022/06/20 02:04:44;;;;;;;5.75;1.10;;;12.80;99.90;;;;;;5008035;28;20121;-35
2022/06/20 02:07:12;;;;;;;3.95;1.20;;;12.80;99.90;;;;;;4993479;28;20054;-35
2022/06/20 02:09:40;;;;;;;6.50;1.17;;;12.80;99.90;;;;;;4996161;28;20439;-35
2022/06/20 02:12:06;;;;;;;4.85;1.15;;;12.70;99.90;;;;;;5011992;28;20050;-35
2022/06/20 02:14:51;;;;;;;7.72;1.38;;;12.70;99.90;;;;;;5012314;28;20212;-34
2022/06/20 02:17:28;;;;;;;6.55;1.27;;;12.60;99.90;;;;;;4997415;28;20096;-35
2022/06/20 02:19:56;;;;;;;5.30;1.45;;;12.70;99.90;;;;;;5012906;28;20042;-35
2022/06/20 02:22:23;;;;;;;3.60;0.98;;;12.70;99.90;;;;;;5007766;28;20525;-35
2022/06/20 02:24:54;;;;;;;5.30;1.33;;;12.60;99.90;;;;;;4991950;28;20434;-35
2022/06/20 02:27:37;;;;;;;4.03;1.05;;;12.60;99.90;;;;;;4995039;28;20465;-35
2022/06/20 02:30:05;;;;;;;6.53;1.23;;;12.50;99.90;;;;;;5010111;28;20050;-35
2022/06/20 02:32:36;;;;;;;4.32;1.10;;;12.50;99.90;;;;;;5011520;28;20049;-35
2022/06/20 02:35:04;;;;;;;6.90;1.30;;;12.50;99.90;;;;;;4991754;28;20081;-35
2022/06/20 02:37:30;;;;;;;5.53;1.40;;;12.50;99.90;;;;;;4993767;28;20168;-35
2022/06/20 02:40:00;;;;;;;4.82;1.05;;;12.40;99.90;;;;;;5011268;28;20497;-35
2022/06/20 02:42:46;;;;;;;3.53;1.23;;;12.30;99.90;;;;;;5010688;28;20104;-35
2022/06/20 02:45:13;;;;;;;6.10;1.48;;;12.30;99.90;;;;;;5010633;28;20795;-35
2022/06/20 02:47:45;;;;;;;3.95;1.40;;;12.30;99.90;;;;;;4990876;28;20053;-35
2022/06/20 02:50:13;;;;;;;5.78;1.60;;;12.30;99.90;;;;;;5009530;28;20045;-35
2022/06/20 02:52:52;;;;;;;6.50;1.77;;;12.20;99.90;;;;;;5008498;28;20065;-35
2022/06/20 02:55:18;;;;;;;9.35;2.00;;;12.20;99.90;;;;;;5007368;28;20081;-35
2022/06/20 02:57:52;;;;;;;8.40;2.10;;;12.10;99.90;;;;;;4994292;28;20073;-35
2022/06/20 03:00:25;;;;;;;8.80;2.00;;;12.10;99.90;;;;;;5008609;28;20433;-35
2022/06/20 03:03:00;;;;;;;7.65;1.80;;;12.00;99.90;;;;;;5008508;28;20056;-35
2022/06/20 03:05:28;;;;;;;5.25;1.52;;;12.00;99.90;;;;;;5009345;28;20064;-35
2022/06/20 03:07:54;;;;;;;6.95;1.73;;;12.00;99.90;;;;;;4974693;28;20045;-35
2022/06/20 03:10:25;;;;;;;8.07;1.92;;;11.90;99.90;;;;;;5010648;28;20141;-35
2022/06/20 03:12:52;;;;;;;7.22;2.10;;;12.00;99.90;;;;;;5009680;28;20104;-35
2022/06/20 03:15:18;;;;;;;4.78;1.55;;;12.00;99.90;;;;;;5008310;28;20129;-35
2022/06/20 03:17:46;;;;;;;7.43;1.95;;;11.90;99.90;;;;;;4993863;28;20133;-35
2022/06/20 03:20:14;;;;;;;6.85;2.35;;;11.80;99.90;;;;;;5010020;28;20093;-35
2022/06/20 03:23:00;;;;;;;6.85;2.05;;;11.80;99.90;;;;;;5007906;28;20529;-34
2022/06/20 03:25:27;;;;;;;7.18;1.95;;;11.80;99.90;;;;;;5012452;28;20045;-35
2022/06/20 03:27:53;;;;;;;8.27;2.50;;;11.80;99.90;;;;;;4975626;28;20712;-35
2022/06/20 03:30:25;;;;;;;7.50;2.30;;;11.70;99.90;;;;;;5007379;28;20198;-35
2022/06/20 03:32:51;;;;;;;7.20;2.25;;;11.70;99.90;;;;;;5007372;28;20050;-35
2022/06/20 03:35:17;;;;;;;8.10;2.40;;;11.70;99.90;;;;;;5009040;28;20042;-35
2022/06/20 03:37:43;;;;;;;6.53;2.22;;;11.70;99.90;;;;;;4993258;28;20050;-35
2022/06/20 03:40:09;;;;;;;4.70;2.25;;;11.70;99.90;;;;;;5014288;28;20045;-35
2022/06/20 03:42:35;;;;;;;8.32;2.28;;;11.60;99.90;;;;;;5007767;28;20053;-35
2022/06/20 03:45:05;;;;;;;6.45;2.17;;;11.60;99.90;;;;;;4990064;28;20559;-35
2022/06/20 03:47:44;;;;;;;7.03;2.03;;;11.60;99.90;;;;;;4989686;28;20124;-35
2022/06/20 03:50:18;;;;;;;7.90;2.25;;;11.50;99.90;;;;;;5006651;28;20144;-35
2022/06/20 03:52:54;;;;;;;6.70;2.10;;;11.50;99.90;;;;;;4989890;28;20210;-35
2022/06/20 03:55:31;;;;;;;8.77;2.63;;;11.50;99.90;;;;;;5010113;28;20074;-35
2022/06/20 03:58:06;;;;;;;7.97;2.47;;;11.40;99.90;;;;;;4974550;28;20050;-35
2022/06/20 04:00:45;;;;;;;7.20;2.47;;;11.30;99.90;;;;;;5008566;28;20499;-35
2022/06/20 04:03:28;;;;;;;8.63;2.28;;;11.40;99.90;;;;;;5005377;28;20042;-35
2022/06/20 04:06:06;;;;;;;8.98;2.75;;;11.30;99.90;;;;;;5009583;28;20084;-34
2022/06/20 04:11:32;;;;;;;5.80;2.40;;;11.30;99.90;;;;;;5007585;28;20413;-35
2022/06/20 04:14:20;;;;;;;9.45;2.53;;;11.30;99.90;;;;;;5006720;28;20046;-35
2022/06/20 04:16:58;;;;;;;8.77;2.78;;;11.30;99.90;;;;;;4996136;28;20584;-35
2022/06/20 04:19:31;;;;;;;10.32;2.65;;;11.20;99.90;;;;;;5012306;28;20054;-35
2022/06/20 04:21:59;;;;;;;6.97;2.40;;;11.30;99.90;;;;;;4991962;28;20054;-35
2022/06/20 04:24:34;;;;;;;6.75;2.17;;;11.30;99.90;;;;;;5006738;28;20058;-35
2022/06/20 04:27:37;;;;;;;8.55;2.10;;;11.30;99.90;;;;;;4993868;28;20058;-35
2022/06/20 04:30:08;;;;;;;10.40;2.67;;;11.40;99.90;;;;;;5008116;28;20053;-35
2022/06/20 04:32:50;;;;;;;9.57;2.50;;;11.40;99.90;;;;;;4992426;28;20049;-35
2022/06/20 04:35:32;;;;;;;6.78;2.65;;;11.50;99.90;;;;;;5008768;28;20067;-35
2022/06/20 04:38:21;;;;;;;6.90;3.15;;;11.50;99.90;;;;;;4993143;28;20103;-35
2022/06/20 04:41:02;;;;;;;9.63;2.95;;;11.50;99.90;;;;;;5010082;28;20050;-35
2022/06/20 04:43:43;;;;;;;6.88;2.35;;;11.50;99.90;;;;;;4992465;28;20492;-35
2022/06/20 04:46:21;;;;;;;9.80;2.63;;;11.60;99.90;;;;;;4985762;28;20108;-35
2022/06/20 04:48:48;;;;;;;8.93;2.95;;;11.60;99.90;;;;;;4989570;28;20053;-35
2022/06/20 04:51:19;;;;;;;8.35;2.83;;;11.60;99.90;;;;;;5012484;28;20121;-35
2022/06/20 04:53:48;;;;;;;12.82;3.20;;;11.60;99.90;;;;;;5010266;28;20143;-35
2022/06/20 04:56:16;;;;;;;12.35;3.28;;;11.70;99.90;;;;;;5005675;28;20042;-35
2022/06/20 04:58:48;;;;;;;10.15;3.00;;;11.70;99.90;;;;;;5005313;28;20054;-35
2022/06/20 05:01:16;;;;;;;7.45;2.88;;;11.70;99.90;;;;;;5013084;28;20046;-35
2022/06/20 05:03:45;;;;;;;8.05;3.13;;;11.90;99.90;;;;;;5011867;28;20456;-35
2022/06/20 05:06:18;;;;;;;8.13;3.40;;;12.00;99.90;;;;;;4991912;28;20524;-35
2022/06/20 05:09:12;;;;;;;8.32;3.35;;;12.10;99.90;;;;;;4973512;28;20456;-35
2022/06/20 05:11:44;;;;;;;11.77;3.33;;;12.20;99.90;;;;;;5010336;28;20568;-35
2022/06/20 05:14:31;;;;;;;11.38;3.60;;;12.30;99.90;;;;;;5009598;28;20104;-35
2022/06/20 05:16:57;;;;;;;12.43;3.75;;;12.40;99.90;;;;;;4995852;28;20041;-35
2022/06/20 05:19:31;;;;;;;15.23;3.80;;;12.50;99.90;;;;;;5010132;28;20046;-35
2022/06/20 05:22:00;;;;;;;12.75;3.75;;;12.60;99.90;;;;;;4989686;28;20053;-35
2022/06/20 05:24:35;;;;;;;7.57;3.80;;;12.80;99.90;;;;;;5006451;28;20500;-35
2022/06/20 05:27:11;;;;;;;11.25;3.70;;;12.90;99.90;;;;;;4993091;28;20528;-35
2022/06/20 05:29:40;;;;;;;10.18;3.60;;;12.90;99.90;;;;;;5008920;28;20122;-35
2022/06/20 05:32:11;;;;;;;8.85;3.50;;;13.10;99.90;;;;;;5008623;28;20073;-35
2022/06/20 05:35:19;;;;;;;15.27;3.65;;;13.10;99.90;;;;;;5008726;28;20041;-35
2022/06/20 05:37:51;;;;;;;10.68;3.60;;;13.20;99.90;;;;;;4993781;28;20050;-35
2022/06/20 05:40:35;;;;;;;9.07;3.25;;;13.20;99.90;;;;;;5010766;28;20475;-35
2022/06/20 05:43:01;;;;;;;12.75;3.70;;;13.50;99.90;;;;;;5010300;28;20108;-35
2022/06/20 05:45:29;;;;;;;13.63;3.55;;;13.60;99.90;;;;;;5010706;28;20038;-35
2022/06/20 05:48:00;;;;;;;8.55;3.55;;;13.70;99.90;;;;;;4994477;28;20054;-35
2022/06/20 05:50:44;;;;;;;10.50;3.70;;;13.80;99.90;;;;;;5010949;28;20077;-35
2022/06/20 05:53:17;;;;;;;12.38;3.50;;;13.90;99.90;;;;;;4994427;28;20103;-35
2022/06/20 05:55:48;;;;;;;14.63;3.65;;;13.90;99.90;;;;;;5011792;28;20049;-35
2022/06/20 05:58:21;;;;;;;9.32;3.85;;;14.10;99.90;;;;;;4995202;28;20046;-35
2022/06/20 06:00:49;;;;;;;11.05;3.28;;;14.20;99.90;;;;;;5013599;28;20534;-35
2022/06/20 06:03:33;;;;;;;12.15;3.45;;;14.30;99.90;;;;;;5009469;28;20069;-35
2022/06/20 06:06:10;;;;;;;13.45;3.42;;;14.40;99.90;;;;;;5014347;28;20136;-35
2022/06/20 06:08:45;;;;;;;16.42;3.35;;;14.50;99.90;;;;;;4998221;28;20057;-35
2022/06/20 06:11:38;;;;;;;13.32;3.30;;;14.50;99.90;;;;;;5010256;28;20096;-35
2022/06/20 06:14:24;;;;;;;11.23;3.15;;;14.40;99.90;;;;;;5008790;28;20547;-35
2022/06/20 06:17:25;;;;;;;12.32;3.03;;;14.40;99.90;;;;;;4975609;28;20046;-35
2022/06/20 06:20:00;;;;;;;10.57;3.17;;;14.40;99.90;;;;;;5000035;28;20049;-35
2022/06/20 06:22:32;;;;;;;12.30;2.95;;;14.40;99.90;;;;;;5011095;28;20046;-35
2022/06/20 06:25:26;;;;;;;10.45;2.90;;;14.40;99.90;;;;;;4987563;28;20083;-35
2022/06/20 06:27:57;;;;;;;13.98;2.90;;;14.50;99.90;;;;;;4998596;28;20433;-35
2022/06/20 06:30:28;;;;;;;9.27;3.03;;;14.50;99.90;;;;;;5010875;28;20066;-35
2022/06/20 06:33:00;;;;;;;12.57;3.75;;;14.60;99.90;;;;;;5011528;28;20053;-35
2022/06/20 06:35:28;;;;;;;9.65;2.78;;;14.70;99.90;;;;;;4994657;28;20137;-35
2022/06/20 06:38:09;;;;;;;12.73;2.78;;;14.70;99.90;;;;;;4997128;28;20397;-35
2022/06/20 06:40:46;;;;;;;13.18;3.17;;;14.70;99.90;;;;;;5012156;28;20490;-35
2022/06/20 06:43:23;;;;;;;9.65;3.03;;;14.90;99.90;;;;;;5011380;28;20067;-35
2022/06/20 06:45:52;;;;;;;10.57;3.15;;;14.90;99.90;;;;;;5001731;28;20064;-35
2022/06/20 06:48:35;;;;;;;10.35;3.17;;;15.00;99.90;;;;;;4989163;28;20394;-35
2022/06/20 06:51:10;;;;;;;9.35;2.85;;;15.10;99.90;;;;;;4972084;28;20482;-35
2022/06/20 06:53:42;;;;;;;10.05;2.80;;;15.00;99.90;;;;;;5010542;28;20401;-35
2022/06/20 06:56:28;;;;;;;9.43;2.70;;;15.00;99.90;;;;;;4999005;28;20050;-36
2022/06/20 06:59:05;;;;;;;11.27;2.30;;;15.10;99.90;;;;;;4988657;28;20050;-35
2022/06/20 07:01:40;;;;;;;11.75;2.28;;;15.20;99.90;;;;;;4985218;28;20054;-35
2022/06/20 07:04:18;;;;;;;9.20;2.00;;;15.20;99.90;;;;;;4989257;28;20563;-35
2022/06/20 07:06:58;;;;;;;10.20;2.13;;;15.20;99.90;;;;;;4978859;28;20050;-35
2022/06/20 07:09:42;;;;;;;12.30;2.10;;;15.20;99.90;;;;;;4991166;28;20128;-35
2022/06/20 07:12:26;;;;;;;8.93;1.95;;;15.20;99.90;;;;;;5008172;28;20069;-35
2022/06/20 07:15:14;;;;;;;5.43;1.55;;;15.20;99.90;;;;;;5008263;28;20046;-35
2022/06/20 07:18:00;;;;;;;7.15;1.88;;;15.30;99.90;;;;;;4973880;28;20065;-36
2022/06/20 07:20:33;;;;;;;10.80;2.03;;;15.40;99.90;;;;;;5009930;28;20061;-35
2022/06/20 07:23:02;;;;;;;8.90;2.00;;;15.50;99.90;;;;;;5008022;28;20041;-35
2022/06/20 07:25:35;;;;;;;6.35;1.70;;;15.60;99.90;;;;;;5013021;28;20086;-35
2022/06/20 07:28:23;;;;;;;7.50;1.67;;;15.60;99.90;;;;;;4992318;28;20096;-35
2022/06/20 07:30:55;;;;;;;9.13;1.50;;;15.60;99.90;;;;;;4982280;28;20047;-35
2022/06/20 07:33:42;;;;;;;;;;;15.60;99.90;;;;;;5009995;28;20412;-35
2022/06/20 07:36:11;;;;;;;5.90;1.45;;;15.50;99.90;;;;;;4957620;28;20310;-36
2022/06/20 07:39:03;;;;;;;5.38;1.40;;;15.50;99.90;;;;;;4984550;28;20123;-35
2022/06/20 07:41:34;;;;;;;4.65;1.25;;;15.50;99.90;;;;;;5011056;28;20052;-35
2022/06/20 07:44:27;;;;;;;5.15;1.20;;;15.60;99.90;;;;;;5007549;28;20045;-35
2022/06/20 07:47:02;;;;;;;3.92;1.40;;;15.60;99.90;;;;;;4974986;28;20064;-35
2022/06/20 07:49:43;;;;;;;5.68;1.55;;;15.60;99.90;;;;;;5017254;28;20496;-35
2022/06/20 07:52:19;;;;;;;6.57;1.13;;;15.70;99.90;;;;;;5007478;28;20342;-35
2022/06/20 07:54:52;;;;;;;3.33;1.13;;;15.70;99.90;;;;;;5010891;28;20290;-35
2022/06/20 07:57:23;;;;;;;4.75;1.33;;;15.90;99.90;;;;;;4972643;28;20050;-35
2022/06/20 08:00:07;;;;;;;4.03;1.50;;;15.90;99.90;;;;;;5007267;28;20501;-35
2022/06/20 08:02:36;;;;;;;3.65;1.23;;;16.00;99.90;;;;;;5012635;28;20050;-35
2022/06/20 08:05:04;;;;;;;7.53;1.30;;;16.00;99.90;;;;;;5002787;28;20287;-35
2022/06/20 08:07:41;;;;;;;6.72;1.60;;;15.90;99.90;;;;;;4992148;28;20073;-35
2022/06/20 08:10:25;;;;;;;5.15;1.35;;;16.00;99.90;;;;;;5004999;28;20072;-35
2022/06/20 08:12:51;;;;;;;3.85;1.38;;;16.10;99.90;;;;;;5009363;28;20045;-35
2022/06/20 08:15:23;;;;;;;8.20;1.70;;;16.10;99.90;;;;;;5008384;28;20046;-35
2022/06/20 08:17:50;;;;;;;3.60;1.20;;;16.00;99.90;;;;;;4996584;28;20382;-35
2022/06/20 08:20:17;;;;;;;8.30;2.10;;;16.10;99.90;;;;;;4994432;28;20053;-35
2022/06/20 08:22:59;;;;;;;7.45;1.80;;;16.10;99.90;;;;;;5011750;28;20050;-35
2022/06/20 08:25:34;;;;;;;7.95;1.73;;;16.10;99.90;;;;;;5013490;28;20527;-35
2022/06/20 08:28:12;;;;;;;8.10;1.70;;;16.20;99.90;;;;;;4977446;28;20069;-35
2022/06/20 08:30:59;;;;;;;5.22;1.90;;;16.20;99.90;;;;;;5012269;28;20062;-35
2022/06/20 08:33:56;;;;;;;4.80;1.40;;;16.30;99.90;;;;;;5009911;28;20124;-35
2022/06/20 08:36:41;;;;;;;7.93;1.90;;;16.20;99.90;;;;;;4998104;28;20541;-36
2022/06/20 08:39:40;;;;;;;6.63;1.40;;;16.20;99.90;;;;;;4992793;28;20092;-35
2022/06/20 08:42:45;;;;;;;6.55;1.60;;;16.30;99.90;;;;;;5010916;28;20509;-35
2022/06/20 08:45:30;;;;;;;5.78;1.40;;;16.20;99.90;;;;;;5012850;28;20054;-35
2022/06/20 08:48:23;;;;;;;8.55;1.55;;;16.20;99.90;;;;;;4994989;28;20137;-35
2022/06/20 08:51:19;;;;;;;3.28;1.17;;;16.10;99.90;;;;;;5010161;28;20057;-35
2022/06/20 08:54:04;;;;;;;5.28;1.40;;;16.10;99.90;;;;;;5007662;28;20524;-35
2022/06/20 08:56:59;;;;;;;4.65;1.30;;;16.10;99.90;;;;;;5001410;28;20112;-35
2022/06/20 09:00:02;;;;;;;8.13;1.42;;;16.20;99.90;;;;;;5008802;28;20101;-35
2022/06/20 09:02:48;;;;;;;3.97;1.40;;;16.30;99.90;;;;;;5012558;28;20053;-35
2022/06/20 09:05:26;;;;;;;6.65;1.40;;;16.30;99.90;;;;;;5009637;28;20045;-35
2022/06/20 09:08:06;;;;;;;5.55;1.10;;;16.30;99.90;;;;;;4979354;28;20049;-35
2022/06/20 09:10:43;;;;;;;5.00;1.23;;;16.40;99.90;;;;;;5011092;28;20452;-35
2022/06/20 09:13:39;;;;;;;6.07;1.08;;;16.40;99.90;;;;;;4991560;28;20042;-35
2022/06/20 09:16:34;;;;;;;4.45;1.00;;;16.40;99.90;;;;;;4990937;28;20116;-35
2022/06/20 09:19:02;;;;;;;6.03;1.10;;;16.40;99.90;;;;;;4990301;28;20057;-35
2022/06/20 09:21:58;;;;;;;10.82;1.77;;;16.40;99.90;;;;;;4993617;28;20066;-35
2022/06/20 09:24:26;;;;;;;10.60;1.73;;;16.40;99.90;;;;;;5008762;28;20050;-35
2022/06/20 09:27:08;;;;;;;4.45;1.30;;;16.50;99.90;;;;;;4995575;28;20046;-35
2022/06/20 09:29:49;;;;;;;5.53;1.40;;;16.50;99.90;;;;;;4991971;28;20405;-35
2022/06/20 09:32:51;;;;;;;4.43;1.33;;;16.60;99.90;;;;;;5011687;28;20576;-35
2022/06/20 09:35:44;;;;;;;3.90;0.98;;;16.50;99.90;;;;;;5011619;28;20331;-35
2022/06/20 09:38:56;;;;;;;8.10;1.02;;;16.60;99.90;;;;;;4995799;28;20054;-35
2022/06/20 09:41:49;;;;;;;5.60;1.30;;;16.60;99.90;;;;;;5021561;28;20076;-35
2022/06/20 09:44:39;;;;;;;4.72;1.02;;;16.70;99.90;;;;;;5007656;28;20054;-35
2022/06/20 09:47:41;;;;;;;5.22;0.90;;;16.70;99.90;;;;;;4994918;28;20083;-35
2022/06/20 09:50:10;;;;;;;6.43;1.27;;;16.80;99.90;;;;;;4992565;28;20050;-35
2022/06/20 09:52:36;;;;;;;4.20;1.13;;;16.80;99.90;;;;;;4992039;28;20054;-35
2022/06/20 09:55:08;;;;;;;5.40;1.17;;;16.90;99.90;;;;;;4992531;28;20050;-35
2022/06/20 09:58:04;;;;;;;4.72;1.17;;;16.90;99.90;;;;;;4975369;28;20418;-35
2022/06/20 10:01:01;;;;;;;5.78;1.42;;;16.90;99.90;;;;;;4988013;28;20058;-35
2022/06/20 10:03:47;;;;;;;4.22;1.33;;;16.90;99.90;;;;;;4989049;28;20042;-35
2022/06/20 10:06:25;;;;;;;4.32;0.80;;;17.00;99.90;;;;;;4979565;28;20498;-36
2022/06/20 10:09:14;;;;;;;6.50;1.17;;;16.90;99.90;;;;;;4985489;28;20112;-35
2022/06/20 10:12:18;;;;;;;5.05;1.13;;;16.90;99.90;;;;;;4989496;28;20130;-35
2022/06/20 10:14:54;;;;;;;3.90;1.25;;;16.90;99.90;;;;;;4985834;28;20049;-35
2022/06/20 10:17:29;;;;;;;4.20;1.20;;;16.90;99.90;;;;;;4973261;28;20069;-35
2022/06/20 10:20:06;;;;;;;3.60;0.80;;;16.90;99.90;;;;;;4990954;28;20085;-35
2022/06/20 10:23:07;;;;;;;5.78;1.08;;;17.00;99.90;;;;;;4989705;28;20125;-35
2022/06/20 10:25:47;;;;;;;9.35;1.17;;;17.00;99.90;;;;;;4947827;28;20066;-35
2022/06/20 10:28:38;;;;;;;8.27;1.13;;;17.00;99.90;;;;;;4967051;28;20105;-35
2022/06/20 10:31:17;;;;;;;5.43;1.40;;;17.00;99.90;;;;;;4989857;28;20525;-35
2022/06/20 10:34:05;;;;;;;3.30;1.05;;;17.00;99.90;;;;;;4986291;28;20165;-35
2022/06/20 10:36:48;;;;;;;5.25;1.20;;;17.00;99.90;;;;;;4975898;28;20053;-35
2022/06/20 10:39:35;;;;;;;8.50;1.38;;;17.00;99.90;;;;;;4990703;28;20118;-35
2022/06/20 10:42:07;;;;;;;6.60;1.60;;;17.10;99.90;;;;;;4990723;28;20049;-35
2022/06/20 10:45:17;;;;;;;4.93;1.23;;;17.10;99.90;;;;;;4993379;28;20054;-35
2022/06/20 10:48:04;;;;;;;5.95;1.60;;;17.10;99.90;;;;;;4981135;28;20050;-35
2022/06/20 10:50:40;;;;;;;8.13;1.85;;;17.20;99.90;;;;;;4995946;28;20085;-35
2022/06/20 10:53:11;;;;;;;5.68;1.23;;;17.10;99.90;;;;;;4995673;28;20046;-35
2022/06/20 10:55:47;;;;;;;6.05;1.23;;;17.10;99.90;;;;;;4989139;28;20402;-35
2022/06/20 10:58:28;;;;;;;4.45;1.38;;;17.20;99.90;;;;;;4981992;28;20060;-35
2022/06/20 11:01:13;;;;;;;7.20;1.40;;;17.20;99.90;;;;;;4987374;28;20042;-35
2022/06/20 11:03:47;;;;;;;4.75;1.10;;;17.30;99.90;;;;;;4980530;28;20057;-35
2022/06/20 11:06:41;;;;;;;5.57;1.20;;;17.30;99.90;;;;;;4960576;28;20089;-35
2022/06/20 11:09:40;;;;;;;3.95;1.30;;;17.30;99.90;;;;;;4970032;28;20051;-35
2022/06/20 11:12:29;;;;;;;3.63;1.13;;;17.40;99.90;;;;;;4967413;28;20050;-35
2022/06/20 11:15:08;;;;;;;4.70;1.10;;;17.40;99.90;;;;;;4987922;28;20050;-35
2022/06/20 11:17:46;;;;;;;4.38;1.42;;;17.40;99.90;;;;;;4976503;28;20513;-35
2022/06/20 11:20:19;;;;;;;4.55;1.50;;;17.50;99.90;;;;;;4990683;28;20551;-35
2022/06/20 11:22:51;;;;;;;5.50;1.02;;;17.50;99.90;;;;;;4991156;28;20129;-35
2022/06/20 11:25:39;;;;;;;5.80;1.38;;;17.60;99.90;;;;;;4995325;28;20048;-35
2022/06/20 11:28:39;;;;;;;5.28;1.17;;;17.70;99.90;;;;;;4976276;28;20521;-35
2022/06/20 11:31:45;;;;;;;4.20;1.10;;;17.70;99.90;;;;;;4991629;28;20488;-35
2022/06/20 11:34:42;;;;;;;5.88;1.17;;;17.80;99.90;;;;;;4961826;28;20053;-35
2022/06/20 11:37:36;;;;;;;3.63;1.42;;;17.80;99.90;;;;;;4975227;28;20042;-35
2022/06/20 11:40:26;;;;;;;5.53;1.38;;;17.80;99.90;;;;;;4995494;28;20034;-35
2022/06/20 11:43:01;;;;;;;6.47;1.63;;;17.90;99.90;;;;;;4990106;28;20061;-35
2022/06/20 11:45:32;;;;;;;4.10;1.02;;;17.90;99.90;;;;;;4991707;28;20057;-35
2022/06/20 11:48:10;;;;;;;5.68;1.30;;;17.90;99.90;;;;;;4973629;28;20056;-34
2022/06/20 11:50:48;;;;;;;3.08;0.98;;;17.90;99.90;;;;;;4988010;28;20050;-35
2022/06/20 11:53:24;;;;;;;4.22;1.20;;;17.90;99.90;;;;;;4986895;28;20054;-36
2022/06/20 11:56:01;;;;;;;4.40;1.25;;;18.00;99.90;;;;;;4990244;28;20053;-34
2022/06/20 11:58:37;;;;;;;4.53;1.30;;;18.10;99.90;;;;;;4972477;28;20128;-34
2022/06/20 12:01:17;;;;;;;4.85;1.08;;;18.10;99.90;;;;;;5009041;28;20596;-35
2022/06/20 12:03:59;;;;;;;3.45;0.77;;;18.10;99.90;;;;;;5006681;28;20140;-34
2022/06/20 12:06:49;;;;;;;7.60;1.10;;;18.20;99.90;;;;;;4995544;28;20143;-35
2022/06/20 12:09:27;;;;;;;5.68;1.23;;;18.30;99.90;;;;;;5005767;28;20050;-35
2022/06/20 12:12:07;;;;;;;4.75;1.00;;;18.40;99.90;;;;;;5012736;28;20053;-35
2022/06/20 12:14:47;;;;;;;3.35;0.98;;;18.40;99.90;;;;;;5011155;28;20516;-35
2022/06/20 12:17:43;;;;;;;2.00;0.90;;;18.40;99.90;;;;;;4995832;28;20057;-35
2022/06/20 12:25:47;;;;;;;5.53;0.80;;;18.60;99.90;;;;;;5014238;28;20049;-35
2022/06/20 12:28:26;;;;;;;7.93;1.30;;;18.60;99.90;;;;;;4995115;28;20054;-35
2022/06/20 12:31:02;;;;;;;4.47;1.30;;;18.60;99.90;;;;;;5008530;28;20052;-35
2022/06/20 12:33:29;;;;;;;2.92;1.10;;;18.50;99.90;;;;;;5010530;28;20034;-35
2022/06/20 12:36:00;;;;;;;9.38;1.35;;;18.40;99.90;;;;;;4977406;28;20093;-35
2022/06/20 12:38:35;;;;;;;6.30;1.40;;;18.50;99.90;;;;;;4978184;28;20077;-35
2022/06/20 12:41:13;;;;;;;5.30;1.17;;;18.50;99.90;;;;;;5008708;28;21697;-35
2022/06/20 12:43:54;;;;;;;5.88;1.08;;;18.70;99.90;;;;;;4992476;28;20087;-35
2022/06/20 12:46:53;;;;;;;4.87;0.93;;;18.70;99.90;;;;;;4990800;28;20037;-35
2022/06/20 12:49:44;;;;;;;7.60;1.02;;;18.80;99.90;;;;;;5002950;28;20299;-35
2022/06/20 12:52:34;;;;;;;6.35;1.30;;;18.90;99.90;;;;;;5004744;28;20190;-35
2022/06/20 12:55:36;;;;;;;4.93;1.20;;;18.80;99.90;;;;;;5005158;28;20120;-35
2022/06/20 12:58:05;;;;;;;4.25;1.20;;;18.70;99.90;;;;;;4987788;28;20081;-35
2022/06/20 13:00:45;;;;;;;4.75;0.90;;;18.60;99.90;;;;;;5002385;28;20061;-35
2022/06/20 13:03:10;;;;;;;4.70;1.10;;;18.50;99.90;;;;;;4988670;28;20046;-35
2022/06/20 13:06:08;;;;;;;2.38;1.05;;;18.60;99.90;;;;;;4989217;28;20046;-35
2022/06/20 13:08:55;;;;;;;6.38;1.20;;;18.70;99.90;;;;;;4997484;28;20425;-35
2022/06/20 13:11:51;;;;;;;5.53;1.17;;;18.90;99.90;;;;;;5008259;28;20132;-35
2022/06/20 13:14:31;;;;;;;5.40;1.33;;;18.90;99.90;;;;;;5005984;28;20567;-35
2022/06/20 13:17:12;;;;;;;4.13;1.30;;;19.00;99.90;;;;;;4993179;28;20604;-35
2022/06/20 13:19:56;;;;;;;6.63;1.33;;;19.10;99.90;;;;;;5005868;28;20053;-35
2022/06/20 13:22:37;;;;;;;4.38;1.23;;;19.20;99.90;;;;;;5006565;28;20401;-35
2022/06/20 13:25:40;;;;;;;5.23;1.33;;;19.20;99.90;;;;;;5009016;28;20700;-35
2022/06/20 13:28:25;;;;;;;4.95;1.55;;;19.40;99.90;;;;;;4991735;28;20050;-35
2022/06/20 13:31:20;;;;;;;4.60;1.00;;;19.50;99.90;;;;;;5007087;28;20046;-35
2022/06/20 13:34:22;;;;;;;2.03;0.90;;;19.40;99.90;;;;;;5006022;28;20089;-35
2022/06/20 13:37:09;;;;;;;5.50;1.20;;;19.50;99.90;;;;;;4992148;28;20048;-35
2022/06/20 13:39:52;;;;;;;9.43;1.00;;;19.60;99.90;;;;;;5007588;28;20049;-35
2022/06/20 13:42:32;;;;;;;4.35;1.20;;;19.70;99.90;;;;;;5006775;28;20029;-35
2022/06/20 13:45:15;;;;;;;3.47;0.90;;;19.70;99.90;;;;;;5004283;28;20073;-35
2022/06/20 13:48:11;;;;;;;2.42;0.88;;;19.80;99.90;;;;;;4991394;28;20057;-35
2022/06/20 13:51:16;;;;;;;5.40;1.02;;;19.90;99.90;;;;;;4990015;28;20056;-35
2022/06/20 13:53:50;;;;;;;2.15;0.80;;;19.70;99.90;;;;;;4942652;28;20172;-35
2022/06/20 13:56:49;;;;;;;4.88;0.82;;;19.80;99.90;;;;;;4989541;28;20535;-35